Time;durP1;ratioP1;P1;durP2;ratioP2;P2;SDS_P1;SDS_P2;PMS_P1;PMS_P2;Temp;Humidity;BMP_temperature;BMP_pressure;BME280_temperature;BME280_humidity;BME280_pressure;Samples;Min_cycle;Max_cycle;Signal;HPM_P1;HPM_P2
2024/04/12 00:01:14;;;;;;;;;;;16.30;30.60;;;;;;5563470;25;20263;-69
2024/04/12 00:03:41;;;;;;;;;;;16.20;30.50;;;;;;5563868;25;19934;-69
2024/04/12 00:06:17;;;;;;;;;;;16.30;31.80;;;;;;5563828;25;20379;-69
2024/04/12 00:08:49;;;;;;;;;;;16.20;31.00;;;;;;5563902;25;19973;-69
2024/04/12 00:11:18;;;;;;;;;;;16.20;29.50;;;;;;5563463;25;19927;-68
2024/04/12 00:13:45;;;;;;;;;;;16.30;28.40;;;;;;5563725;25;20391;-69
2024/04/12 00:16:11;;;;;;;;;;;16.20;29.30;;;;;;5563662;25;19934;-69
2024/04/12 00:18:37;;;;;;;;;;;16.20;30.60;;;;;;5563743;25;20271;-69
2024/04/12 00:21:04;;;;;;;;;;;16.00;30.80;;;;;;5563218;25;19927;-68
2024/04/12 00:23:39;;;;;;;;;;;16.10;30.20;;;;;;5563725;25;20370;-68
2024/04/12 00:26:04;;;;;;;;;;;15.90;27.80;;;;;;5563683;25;20267;-69
2024/04/12 00:28:30;;;;;;;;;;;16.00;34.10;;;;;;5563684;25;19959;-68
2024/04/12 00:30:59;;;;;;;;;;;16.00;35.10;;;;;;5563074;25;19986;-68
2024/04/12 00:33:31;;;;;;;;;;;16.00;38.20;;;;;;5563613;25;19933;-69
2024/04/12 00:36:17;;;;;;;;;;;15.90;38.70;;;;;;5563427;25;20279;-69
2024/04/12 00:38:42;;;;;;;;;;;15.90;36.00;;;;;;5563446;25;19934;-68
2024/04/12 00:41:14;;;;;;;;;;;16.00;43.50;;;;;;5562969;25;20413;-69
2024/04/12 00:43:45;;;;;;;;;;;15.80;39.70;;;;;;5563369;25;19935;-69
2024/04/12 00:46:14;;;;;;;;;;;15.80;44.20;;;;;;5563218;25;19959;-69
2024/04/12 00:48:40;;;;;;;;;;;15.80;44.20;;;;;;5563296;25;19934;-69
2024/04/12 00:51:05;;;;;;;;;;;15.80;46.80;;;;;;5562744;25;19935;-69
2024/04/12 00:53:32;;;;;;;;;;;15.70;47.00;;;;;;5563059;25;19927;-69
2024/04/12 00:56:03;;;;;;;;;;;15.80;45.50;;;;;;5563262;25;19934;-69
2024/04/12 00:58:34;;;;;;;;;;;15.80;46.30;;;;;;5563089;25;19927;-69
2024/04/12 01:01:10;;;;;;;;;;;15.80;46.20;;;;;;5562538;25;19934;-69
2024/04/12 01:03:36;;;;;;;;;;;15.70;46.90;;;;;;5563114;25;19927;-69
2024/04/12 01:06:05;;;;;;;;;;;15.90;47.10;;;;;;5563128;25;19997;-69
2024/04/12 01:08:31;;;;;;;;;;;15.90;42.10;;;;;;5562875;25;20324;-69
2024/04/12 01:10:59;;;;;;;;;;;16.00;44.30;;;;;;5561319;25;19934;-69
2024/04/12 01:13:26;;;;;;;;;;;15.90;45.60;;;;;;5562673;25;19927;-69
2024/04/12 01:15:53;;;;;;;;;;;16.00;44.70;;;;;;5562905;25;19934;-69
2024/04/12 01:18:19;;;;;;;;;;;16.00;44.10;;;;;;5562703;25;19934;-69
2024/04/12 01:20:45;;;;;;;;;;;15.90;45.40;;;;;;5562350;25;20430;-69
2024/04/12 01:23:15;;;;;;;;;;;15.80;46.20;;;;;;5562685;25;19933;-68
2024/04/12 01:25:40;;;;;;;;;;;15.70;48.40;;;;;;5562679;25;20000;-68
2024/04/12 01:28:09;;;;;;;;;;;15.70;49.60;;;;;;5562644;25;19927;-68
2024/04/12 01:30:34;;;;;;;;;;;15.60;52.20;;;;;;5562139;25;20438;-69
2024/04/12 01:33:01;;;;;;;;;;;15.70;53.00;;;;;;5562422;25;19927;-69
2024/04/12 01:35:27;;;;;;;;;;;15.80;53.30;;;;;;5562422;25;19927;-69
2024/04/12 01:37:52;;;;;;;;;;;15.80;53.20;;;;;;5562281;25;20005;-69
2024/04/12 01:40:18;;;;;;;;;;;15.90;52.60;;;;;;5562088;25;19927;-69
2024/04/12 01:42:44;;;;;;;;;;;16.00;51.10;;;;;;5562464;25;20001;-68
2024/04/12 01:45:16;;;;;;;;;;;15.90;48.20;;;;;;5562712;25;20298;-69
2024/04/12 01:47:42;;;;;;;;;;;15.70;51.30;;;;;;5562377;25;19960;-68
2024/04/12 01:50:08;;;;;;;;;;;16.00;50.70;;;;;;5561811;25;20366;-68
2024/04/12 01:52:50;;;;;;;;;;;15.90;50.40;;;;;;5562318;25;20003;-68
2024/04/12 01:55:21;;;;;;;;;;;15.90;51.80;;;;;;5562147;25;20323;-69
2024/04/12 01:57:47;;;;;;;;;;;15.80;53.70;;;;;;5562152;25;20259;-69
2024/04/12 02:00:16;;;;;;;;;;;15.60;54.10;;;;;;5561685;25;19938;-69
2024/04/12 02:02:45;;;;;;;;;;;15.80;55.00;;;;;;5561857;25;20351;-68
2024/04/12 02:05:10;;;;;;;;;;;15.70;55.80;;;;;;5561977;25;20259;-69
2024/04/12 02:07:39;;;;;;;;;;;15.90;54.60;;;;;;5561852;25;19964;-69
2024/04/12 02:10:08;;;;;;;;;;;15.80;56.30;;;;;;5561422;25;19927;-69
2024/04/12 02:12:36;;;;;;;;;;;15.80;51.60;;;;;;5561688;25;19934;-68
2024/04/12 02:15:19;;;;;;;;;;;15.80;57.40;;;;;;5561911;25;19939;-69
2024/04/12 02:17:54;;;;;;;;;;;15.80;57.20;;;;;;5561973;25;19933;-68
2024/04/12 02:20:20;;;;;;;;;;;15.80;54.80;;;;;;5561443;25;19927;-68
2024/04/12 02:22:46;;;;;;;;;;;15.60;60.90;;;;;;5565404;25;19927;-69
2024/04/12 02:25:13;;;;;;;;;;;15.60;63.30;;;;;;5565628;25;19959;-69
2024/04/12 02:27:38;;;;;;;;;;;15.60;62.40;;;;;;5565648;25;19927;-68
2024/04/12 02:30:06;;;;;;;;;;;15.70;61.60;;;;;;5565140;25;19941;-68
2024/04/12 02:32:31;;;;;;;;;;;15.60;63.50;;;;;;5565206;25;20005;-68
2024/04/12 02:34:57;;;;;;;;;;;15.50;68.70;;;;;;5565467;25;19934;-68
2024/04/12 02:37:22;;;;;;;;;;;15.50;71.10;;;;;;5565519;25;19927;-68
2024/04/12 02:39:48;;;;;;;;;;;15.50;75.20;;;;;;5565161;25;19938;-68
2024/04/12 02:42:18;;;;;;;;;;;15.40;76.40;;;;;;5565504;25;20684;-69
2024/04/12 02:44:45;;;;;;;;;;;15.40;76.70;;;;;;5565381;25;19938;-68
2024/04/12 02:47:14;;;;;;;;;;;15.60;77.70;;;;;;5565199;25;19955;-68
2024/04/12 02:49:40;;;;;;;;;;;15.30;77.90;;;;;;5564791;25;19960;-69
2024/04/12 02:52:07;;;;;;;;;;;15.40;81.00;;;;;;5565058;25;20290;-68
2024/04/12 02:54:35;;;;;;;;;;;15.40;80.70;;;;;;5565158;25;19994;-68
2024/04/12 02:57:02;;;;;;;;;;;15.40;82.60;;;;;;5564982;25;19935;-68
2024/04/12 02:59:28;;;;;;;;;;;15.30;86.40;;;;;;5564594;25;19927;-69
2024/04/12 03:01:54;;;;;;;;;;;15.30;86.80;;;;;;5564745;25;19933;-68
2024/04/12 03:04:19;;;;;;;;;;;15.30;89.50;;;;;;5565069;25;19927;-68
2024/04/12 03:06:45;;;;;;;;;;;15.30;91.30;;;;;;5565173;25;19934;-68
2024/04/12 03:09:11;;;;;;;;;;;15.30;91.00;;;;;;5564368;25;19934;-69
2024/04/12 03:11:37;;;;;;;;;;;15.30;91.30;;;;;;5564938;25;20252;-69
2024/04/12 03:14:09;;;;;;;;;;;15.20;93.20;;;;;;5564580;25;19935;-68
2024/04/12 03:16:35;;;;;;;;;;;15.20;93.10;;;;;;5564678;25;20286;-68
2024/04/12 03:19:07;;;;;;;;;;;15.10;96.70;;;;;;5564533;25;19931;-68
2024/04/12 03:21:33;;;;;;;;;;;15.10;97.30;;;;;;5564511;25;19951;-68
2024/04/12 03:24:00;;;;;;;;;;;15.00;98.80;;;;;;5564663;25;19998;-69
2024/04/12 03:26:25;;;;;;;;;;;15.00;99.10;;;;;;5564516;25;20328;-68
2024/04/12 03:28:54;;;;;;;;;;;15.10;99.00;;;;;;5564426;25;19927;-69
2024/04/12 03:31:20;;;;;;;;;;;15.10;99.10;;;;;;5564533;25;20253;-68
2024/04/12 03:33:46;;;;;;;;;;;15.10;99.90;;;;;;5563698;25;19951;-69
2024/04/12 03:37:23;;;;;;;;;;;15.00;99.90;;;;;;5564458;25;19934;-68
2024/04/12 03:41:50;;;;;;;;;;;15.00;99.90;;;;;;5564697;25;19926;-69
2024/04/12 03:44:18;;;;;;;;;;;15.00;99.90;;;;;;5564179;25;20260;-69
2024/04/12 03:46:50;;;;;;;;;;;15.00;99.90;;;;;;5564232;25;20027;-69
2024/04/12 03:49:16;;;;;;;;;;;14.80;99.90;;;;;;5563717;25;19927;-69
2024/04/12 03:51:44;;;;;;;;;;;15.00;99.90;;;;;;5564159;25;19927;-68
2024/04/12 03:54:21;;;;;;;;;;;15.00;99.90;;;;;;5564113;25;20455;-69
2024/04/12 03:56:49;;;;;;;;;;;14.90;99.90;;;;;;5564182;25;19934;-69
2024/04/12 03:59:15;;;;;;;;;;;15.00;99.90;;;;;;5563593;25;20341;-68
2024/04/12 04:01:44;;;;;;;;;;;14.90;99.90;;;;;;5564135;25;19954;-69
2024/04/12 04:04:11;;;;;;;;;;;14.90;99.90;;;;;;5563966;25;20262;-68
2024/04/12 04:06:37;;;;;;;;;;;14.90;99.90;;;;;;5563997;25;20270;-68
2024/04/12 04:09:05;;;;;;;;;;;14.90;99.90;;;;;;5563373;25;19933;-69
2024/04/12 04:11:34;;;;;;;;;;;14.90;99.90;;;;;;5563662;25;20324;-68
2024/04/12 04:14:08;;;;;;;;;;;14.90;99.90;;;;;;5563809;25;19927;-69
2024/04/12 04:16:36;;;;;;;;;;;14.90;99.90;;;;;;5563983;25;19927;-68
2024/04/12 04:19:02;;;;;;;;;;;14.90;99.90;;;;;;5563754;25;19958;-68
2024/04/12 04:21:32;;;;;;;;;;;14.80;99.90;;;;;;5563696;25;19998;-68
2024/04/12 04:24:08;;;;;;;;;;;14.80;99.90;;;;;;5563955;25;20363;-68
2024/04/12 04:26:36;;;;;;;;;;;14.80;99.90;;;;;;5563834;25;19931;-69
2024/04/12 04:29:03;;;;;;;;;;;14.80;99.90;;;;;;5563266;25;19938;-69
2024/04/12 04:31:43;;;;;;;;;;;14.70;99.90;;;;;;5563544;25;19933;-69
2024/04/12 04:34:12;;;;;;;;;;;14.70;99.90;;;;;;5563629;25;19926;-69
2024/04/12 04:36:38;;;;;;;;;;;14.70;99.90;;;;;;5563517;25;19927;-69
2024/04/12 04:39:06;;;;;;;;;;;14.70;99.90;;;;;;5563239;25;19935;-68
2024/04/12 04:41:32;;;;;;;;;;;14.70;99.90;;;;;;5563323;25;19937;-68
2024/04/12 04:43:59;;;;;;;;;;;14.80;99.90;;;;;;5561949;25;19950;-68
2024/04/12 04:46:28;;;;;;;;;;;14.60;99.90;;;;;;5562874;25;19927;-68
2024/04/12 04:48:53;;;;;;;;;;;14.60;99.90;;;;;;5562885;25;19939;-68
2024/04/12 04:51:19;;;;;;;;;;;14.70;99.90;;;;;;5563059;25;19999;-68
2024/04/12 04:53:45;;;;;;;;;;;14.80;99.90;;;;;;5562883;25;20401;-68
2024/04/12 04:56:12;;;;;;;;;;;14.70;99.90;;;;;;5563108;25;19927;-68
2024/04/12 04:58:41;;;;;;;;;;;14.70;99.90;;;;;;5562910;25;19934;-68
2024/04/12 05:01:11;;;;;;;;;;;14.70;99.90;;;;;;5562485;25;19927;-68
2024/04/12 05:03:37;;;;;;;;;;;14.70;99.90;;;;;;5562963;25;19995;-68
2024/04/12 05:06:06;;;;;;;;;;;14.80;99.90;;;;;;5563011;25;19927;-69
2024/04/12 05:08:35;;;;;;;;;;;14.90;99.90;;;;;;5562858;25;19927;-68
2024/04/12 05:11:05;;;;;;;;;;;15.00;99.90;;;;;;5562761;25;19995;-69
2024/04/12 05:13:37;;;;;;;;;;;14.90;99.90;;;;;;5562582;25;19927;-68
2024/04/12 05:16:15;;;;;;;;;;;14.90;99.90;;;;;;5562824;25;19960;-69
2024/04/12 05:18:44;;;;;;;;;;;14.90;99.90;;;;;;5562806;25;19934;-69
2024/04/12 05:21:13;;;;;;;;;;;14.90;99.90;;;;;;5562383;25;19927;-69
2024/04/12 05:23:39;;;;;;;;;;;14.90;99.90;;;;;;5562419;25;19928;-69
2024/04/12 05:26:06;;;;;;;;;;;15.10;99.90;;;;;;5562665;25;19927;-69
2024/04/12 05:28:32;;;;;;;;;;;15.00;99.90;;;;;;5562575;25;20251;-68
2024/04/12 05:30:58;;;;;;;;;;;15.00;99.90;;;;;;5529522;25;19927;-69
2024/04/12 05:33:24;;;;;;;;;;;15.00;99.90;;;;;;5562347;25;20021;-68
2024/04/12 05:35:51;;;;;;;;;;;14.80;99.90;;;;;;5562368;25;20263;-68
2024/04/12 05:38:20;;;;;;;;;;;15.00;99.90;;;;;;5562386;25;20269;-68
2024/04/12 05:40:51;;;;;;;;;;;14.90;99.90;;;;;;5562070;25;20023;-68
2024/04/12 05:43:18;;;;;;;;;;;14.80;99.90;;;;;;5562274;25;19927;-69
2024/04/12 05:45:55;;;;;;;;;;;15.00;99.90;;;;;;5562134;25;19934;-69
2024/04/12 05:48:21;;;;;;;;;;;15.00;99.90;;;;;;5562240;25;20363;-68
2024/04/12 05:50:48;;;;;;;;;;;15.00;99.90;;;;;;5561793;25;20016;-69
2024/04/12 05:53:14;;;;;;;;;;;15.10;99.90;;;;;;5562190;25;20241;-69
2024/04/12 05:55:46;;;;;;;;;;;15.30;99.90;;;;;;5562841;25;19927;-69
2024/04/12 05:58:13;;;;;;;;;;;15.30;99.90;;;;;;5565815;25;19927;-68
2024/04/12 06:00:41;;;;;;;;;;;15.30;99.90;;;;;;5565334;25;19942;-69
2024/04/12 06:03:14;;;;;;;;;;;15.20;99.90;;;;;;5565662;25;19951;-68
2024/04/12 06:05:45;;;;;;;;;;;15.20;99.90;;;;;;5565728;25;19934;-68
2024/04/12 06:08:12;;;;;;;;;;;15.20;99.90;;;;;;5565926;25;19935;-68
2024/04/12 06:10:44;;;;;;;;;;;15.10;99.90;;;;;;5565235;25;20695;-68
2024/04/12 06:13:11;;;;;;;;;;;15.20;99.90;;;;;;5565406;25;19938;-68
2024/04/12 06:15:37;;;;;;;;;;;15.10;99.90;;;;;;5565592;25;19927;-69
2024/04/12 06:18:08;;;;;;;;;;;15.20;99.90;;;;;;5565522;25;20266;-69
2024/04/12 06:20:36;;;;;;;;;;;15.20;99.90;;;;;;5564952;25;19934;-68
2024/04/12 06:23:11;;;;;;;;;;;15.20;99.90;;;;;;5565403;25;19939;-69
2024/04/12 06:25:38;;;;;;;;;;;15.30;99.90;;;;;;5565385;25;19931;-69
2024/04/12 06:28:11;;;;;;;;;;;15.30;99.90;;;;;;5565223;25;19931;-69
2024/04/12 06:30:40;;;;;;;;;;;15.40;99.90;;;;;;5564909;25;19931;-69
2024/04/12 06:33:06;;;;;;;;;;;15.30;99.90;;;;;;5565121;25;19927;-69
2024/04/12 06:35:32;;;;;;;;;;;15.50;99.90;;;;;;5565264;25;19927;-69
2024/04/12 06:37:58;;;;;;;;;;;15.50;99.90;;;;;;5565245;25;19927;-68
2024/04/12 06:40:28;;;;;;;;;;;15.50;99.90;;;;;;5564991;25;19938;-68
2024/04/12 06:43:05;;;;;;;;;;;15.60;99.90;;;;;;5565621;25;20379;-68
2024/04/12 06:45:41;;;;;;;;;;;15.60;99.90;;;;;;5565149;25;19939;-68
2024/04/12 06:48:19;;;;;;;;;;;15.50;99.90;;;;;;5565078;25;19927;-68
2024/04/12 06:50:59;;;;;;;;;;;15.50;99.90;;;;;;5564592;25;19975;-68
2024/04/12 06:53:25;;;;;;;;;;;15.60;99.90;;;;;;5564902;25;20031;-69
2024/04/12 06:55:57;;;;;;;;;;;15.60;99.90;;;;;;5564905;25;20325;-68
2024/04/12 06:58:24;;;;;;;;;;;15.60;99.90;;;;;;5564970;25;19927;-68
2024/04/12 07:00:59;;;;;;;;;;;15.60;99.90;;;;;;5564503;25;20359;-68
2024/04/12 07:03:24;;;;;;;;;;;15.70;99.90;;;;;;5564981;25;20451;-69
2024/04/12 07:05:53;;;;;;;;;;;15.70;99.90;;;;;;5564903;25;19935;-68
2024/04/12 07:08:21;;;;;;;;;;;15.80;99.90;;;;;;5563613;25;19927;-69
2024/04/12 07:10:50;;;;;;;;;;;15.70;99.90;;;;;;5564193;25;20430;-70
2024/04/12 07:13:26;;;;;;;;;;;15.70;99.90;;;;;;5564628;25;19927;-68
2024/04/12 07:15:55;;;;;;;;;;;15.70;99.90;;;;;;5564534;25;20292;-69
2024/04/12 07:18:22;;;;;;;;;;;15.70;99.90;;;;;;5564548;25;19937;-68
2024/04/12 07:20:52;;;;;;;;;;;15.70;99.90;;;;;;5564012;25;19930;-70
2024/04/12 07:23:18;;;;;;;;;;;15.80;99.90;;;;;;5564390;25;20010;-70
2024/04/12 07:25:46;;;;;;;;;;;15.90;99.90;;;;;;5564144;25;19935;-68
2024/04/12 07:28:15;;;;;;;;;;;15.90;99.90;;;;;;5564128;25;20375;-69
2024/04/12 07:30:44;;;;;;;;;;;16.10;99.90;;;;;;5563495;25;19939;-69
2024/04/12 07:33:13;;;;;;;;;;;16.40;99.90;;;;;;5563713;25;19937;-69
2024/04/12 07:35:39;;;;;;;;;;;16.30;99.90;;;;;;5564067;25;19979;-68
2024/04/12 07:38:07;;;;;;;;;;;16.40;99.90;;;;;;5552363;25;20007;-69
2024/04/12 07:40:34;;;;;;;;;;;16.60;99.50;;;;;;5510538;26;19939;-69
2024/04/12 07:43:08;;;;;;;;;;;16.70;96.50;;;;;;5558724;25;19938;-69
2024/04/12 07:45:37;;;;;;;;;;;16.80;93.90;;;;;;5563815;25;19933;-69
2024/04/12 07:48:22;;;;;;;;;;;16.90;95.50;;;;;;5563797;25;19927;-68
2024/04/12 07:50:53;;;;;;;;;;;16.90;93.30;;;;;;5563305;25;19926;-69
2024/04/12 07:53:23;;;;;;;;;;;17.00;90.80;;;;;;5563593;25;19927;-69
2024/04/12 07:56:08;;;;;;;;;;;17.00;89.60;;;;;;5563567;25;19998;-69
2024/04/12 07:58:36;;;;;;;;;;;16.90;78.10;;;;;;5563789;25;19935;-69
2024/04/12 08:01:15;;;;;;;;;;;16.80;85.80;;;;;;5563392;25;19926;-69
2024/04/12 08:03:41;;;;;;;;;;;16.80;88.00;;;;;;5563614;25;19926;-69
2024/04/12 08:09:03;;;;;;;;;;;16.80;88.50;;;;;;5542555;25;19927;-71
2024/04/12 08:11:35;;;;;;;;;;;16.90;87.30;;;;;;5563444;25;19927;-69
2024/04/12 08:14:08;;;;;;;;;;;16.90;88.60;;;;;;5563401;25;19927;-69
2024/04/12 08:16:36;;;;;;;;;;;16.80;85.90;;;;;;5563312;25;19926;-69
2024/04/12 08:19:22;;;;;;;;;;;17.30;90.00;;;;;;5562768;25;19938;-68
2024/04/12 08:21:54;;;;;;;;;;;17.20;82.80;;;;;;5563399;25;19934;-69
2024/04/12 08:24:23;;;;;;;;;;;17.50;80.00;;;;;;5563191;25;19997;-68
2024/04/12 08:26:51;;;;;;;;;;;17.50;77.60;;;;;;5563491;25;19955;-68
2024/04/12 08:29:24;;;;;;;;;;;17.60;78.80;;;;;;5562913;25;19926;-68
2024/04/12 08:31:50;;;;;;;;;;;17.70;67.80;;;;;;5563269;25;19935;-68
2024/04/12 08:34:16;;;;;;;;;;;17.70;62.90;;;;;;5563347;25;19943;-68
2024/04/12 08:36:45;;;;;;;;;;;17.70;60.00;;;;;;5563447;25;20282;-68
2024/04/12 08:39:25;;;;;;;;;;;17.80;57.70;;;;;;5562695;25;19985;-68
2024/04/12 08:41:59;;;;;;;;;;;18.10;55.30;;;;;;5563262;25;19931;-68
2024/04/12 08:44:26;;;;;;;;;;;17.90;51.00;;;;;;5563170;25;19938;-68
2024/04/12 08:46:52;;;;;;;;;;;17.90;56.00;;;;;;5563135;25;20002;-68
2024/04/12 08:49:17;;;;;;;;;;;18.00;53.00;;;;;;5551657;25;19927;-68
2024/04/12 08:51:46;;;;;;;;;;;18.10;53.80;;;;;;5541779;25;19933;-69
2024/04/12 08:54:14;;;;;;;;;;;18.20;54.30;;;;;;5562687;25;19935;-69
2024/04/12 08:56:45;;;;;;;;;;;18.20;51.30;;;;;;5562888;25;19927;-68
2024/04/12 08:59:17;;;;;;;;;;;18.30;49.00;;;;;;5562369;25;19927;-69
2024/04/12 09:01:45;;;;;;;;;;;18.40;51.60;;;;;;5563004;25;19934;-68
2024/04/12 09:04:14;;;;;;;;;;;18.40;45.10;;;;;;5562776;25;19939;-68
2024/04/12 09:06:40;;;;;;;;;;;18.40;43.70;;;;;;5562796;25;19995;-69
2024/04/12 09:09:13;;;;;;;;;;;18.40;42.40;;;;;;5562246;25;20338;-68
2024/04/12 09:11:44;;;;;;;;;;;18.50;42.30;;;;;;5562913;25;19927;-68
2024/04/12 09:14:10;;;;;;;;;;;18.50;37.20;;;;;;5562656;25;19941;-69
2024/04/12 09:16:43;;;;;;;;;;;18.50;38.10;;;;;;5562726;25;20274;-68
2024/04/12 09:19:14;;;;;;;;;;;18.70;42.10;;;;;;5562184;25;20351;-69
2024/04/12 09:21:47;;;;;;;;;;;19.00;44.80;;;;;;5562626;25;19927;-69
2024/04/12 09:24:21;;;;;;;;;;;19.20;33.40;;;;;;5562920;25;19927;-68
2024/04/12 09:26:58;;;;;;;;;;;19.20;32.10;;;;;;5562782;25;20274;-69
2024/04/12 09:29:27;;;;;;;;;;;19.00;29.70;;;;;;5561934;25;19963;-68
2024/04/12 09:34:55;;;;;;;;;;;19.30;24.20;;;;;;5562620;25;19933;-69
2024/04/12 09:37:38;;;;;;;;;;;19.10;26.90;;;;;;5562304;25;19964;-68
2024/04/12 09:40:16;;;;;;;;;;;19.10;26.20;;;;;;5561928;25;19998;-68
2024/04/12 09:45:21;;;;;;;;;;;19.20;29.30;;;;;;5562271;25;19971;-68
2024/04/12 10:37:59;;;;;;;;;;;19.90;14.20;;;;;;5561218;25;19938;-69
2024/04/12 10:40:28;;;;;;;;;;;20.00;13.30;;;;;;5560970;25;19939;-69
2024/04/12 10:42:56;;;;;;;;;;;20.00;14.10;;;;;;5562321;25;19927;-69
2024/04/12 10:45:21;;;;;;;;;;;20.10;13.60;;;;;;5565262;25;19943;-68
2024/04/12 10:47:47;;;;;;;;;;;20.00;12.40;;;;;;5564549;25;19927;-69
2024/04/12 10:50:17;;;;;;;;;;;20.10;14.00;;;;;;5548898;25;19934;-69
2024/04/12 10:52:43;;;;;;;;;;;20.20;12.60;;;;;;5564929;25;20381;-69
2024/04/12 10:55:09;;;;;;;;;;;19.90;13.10;;;;;;5564386;25;19928;-69
2024/04/12 10:57:44;;;;;;;;;;;19.90;11.20;;;;;;5565235;25;20367;-69
2024/04/12 11:00:15;;;;;;;;;;;19.70;12.40;;;;;;5564289;25;20263;-69
2024/04/12 11:02:44;;;;;;;;;;;19.70;10.80;;;;;;5565065;25;19927;-69
2024/04/12 11:07:46;;;;;;;;;;;19.80;10.50;;;;;;5565116;25;20362;-69
2024/04/12 11:10:23;;;;;;;;;;;19.90;10.40;;;;;;5564417;25;20451;-69
2024/04/12 11:12:51;;;;;;;;;;;19.80;12.10;;;;;;5564818;25;19927;-69
2024/04/12 11:31:39;;;;;;;;;;;19.70;9.40;;;;;;5564781;25;19933;-68
2024/04/12 11:34:06;;;;;;;;;;;19.60;11.80;;;;;;5564553;25;19926;-69
2024/04/12 11:36:39;;;;;;;;;;;19.70;12.00;;;;;;5564731;25;19938;-69
2024/04/12 11:39:17;;;;;;;;;;;19.50;13.10;;;;;;5564245;25;19927;-69
2024/04/12 11:41:45;;;;;;;;;;;19.60;7.60;;;;;;5564763;25;20396;-69
2024/04/12 11:44:17;;;;;;;;;;;19.60;7.50;;;;;;5564391;25;19927;-69
2024/04/12 11:46:46;;;;;;;;;;;19.60;10.70;;;;;;5564592;25;19933;-69
2024/04/12 11:49:12;;;;;;;;;;;19.70;7.10;;;;;;5564091;25;20280;-68
2024/04/12 11:51:39;;;;;;;;;;;19.70;8.80;;;;;;5564584;25;19975;-69
2024/04/12 11:54:05;;;;;;;;;;;20.00;5.10;;;;;;5563301;25;19934;-68
2024/04/12 11:56:31;;;;;;;;;;;20.10;4.50;;;;;;5564520;25;19927;-68
2024/04/12 11:58:58;;;;;;;;;;;20.20;3.90;;;;;;5563930;25;19927;-68
2024/04/12 12:01:27;;;;;;;;;;;20.30;5.70;;;;;;5563962;25;19934;-69
2024/04/12 12:03:54;;;;;;;;;;;20.60;2.40;;;;;;5564124;25;19927;-68
2024/04/12 12:06:22;;;;;;;;;;;20.40;1.30;;;;;;5564309;25;20270;-69
2024/04/12 12:08:56;;;;;;;;;;;20.50;2.30;;;;;;5564233;25;20406;-69
2024/04/12 12:11:21;;;;;;;;;;;20.70;1.00;;;;;;5563997;25;20389;-69
2024/04/12 12:13:47;;;;;;;;;;;20.70;1.00;;;;;;5564302;25;19935;-69
2024/04/12 12:16:14;;;;;;;;;;;20.70;1.00;;;;;;5563933;25;19927;-69
2024/04/12 12:18:41;;;;;;;;;;;20.70;1.00;;;;;;5563691;25;19927;-69
2024/04/12 12:21:06;;;;;;;;;;;20.80;1.00;;;;;;5563917;25;19927;-69
2024/04/12 12:23:33;;;;;;;;;;;20.90;1.00;;;;;;5564132;25;19933;-69
2024/04/12 12:25:58;;;;;;;;;;;21.10;1.00;;;;;;5563928;25;19927;-68
2024/04/12 12:28:26;;;;;;;;;;;21.50;1.00;;;;;;5563978;25;20017;-69
2024/04/12 12:30:54;;;;;;;;;;;22.00;1.00;;;;;;5563532;25;19966;-69
2024/04/12 12:33:23;;;;;;;;;;;22.80;1.00;;;;;;5563482;25;19927;-70
2024/04/12 12:35:50;;;;;;;;;;;23.50;1.00;;;;;;5563521;25;19963;-70
2024/04/12 12:38:16;;;;;;;;;;;24.30;1.00;;;;;;5563557;25;20050;-69
2024/04/12 12:40:41;;;;;;;;;;;25.10;1.00;;;;;;5562986;25;19926;-69
2024/04/12 12:43:10;;;;;;;;;;;25.60;1.00;;;;;;5563466;25;20359;-70
2024/04/12 12:45:36;;;;;;;;;;;26.10;1.00;;;;;;5530569;25;20378;-70
2024/04/12 12:48:02;;;;;;;;;;;26.40;1.00;;;;;;5563467;25;19975;-69
2024/04/12 12:50:29;;;;;;;;;;;26.20;1.00;;;;;;5563133;25;19938;-69
2024/04/12 12:52:55;;;;;;;;;;;25.60;1.00;;;;;;5563574;25;20378;-70
2024/04/12 12:55:23;;;;;;;;;;;25.00;1.00;;;;;;5563325;25;19927;-69
2024/04/12 12:57:49;;;;;;;;;;;24.40;1.00;;;;;;5563367;25;19957;-70
2024/04/12 13:00:21;;;;;;;;;;;24.20;1.00;;;;;;5562948;25;19926;-70
2024/04/12 13:02:50;;;;;;;;;;;24.00;1.00;;;;;;5563060;25;19927;-70
2024/04/12 13:05:17;;;;;;;;;;;23.80;1.00;;;;;;5561887;25;20404;-70
2024/04/12 13:07:43;;;;;;;;;;;24.00;1.00;;;;;;5563314;25;19935;-70
2024/04/12 13:10:12;;;;;;;;;;;24.30;1.00;;;;;;5563606;25;19936;-71
2024/04/12 13:12:40;;;;;;;;;;;24.70;1.00;;;;;;5530384;25;19974;-70
2024/04/12 13:15:12;;;;;;;;;;;24.60;1.00;;;;;;5564273;25;19934;-70
2024/04/12 13:17:38;;;;;;;;;;;25.30;1.00;;;;;;5564350;25;19931;-70
2024/04/12 13:20:06;;;;;;;;;;;25.30;1.00;;;;;;5562981;25;20276;-69
2024/04/12 13:22:32;;;;;;;;;;;25.10;1.00;;;;;;5525379;25;19928;-70
2024/04/12 13:25:00;;;;;;;;;;;24.60;1.00;;;;;;5523798;25;20469;-70
2024/04/12 13:27:25;;;;;;;;;;;24.30;1.00;;;;;;5525316;25;19928;-70
2024/04/12 13:29:51;;;;;;;;;;;24.30;1.00;;;;;;5524065;25;20329;-70
2024/04/12 13:32:18;;;;;;;;;;;24.60;1.00;;;;;;5524691;25;19936;-71
2024/04/12 13:34:45;;;;;;;;;;;24.80;1.00;;;;;;5525360;25;19994;-70
2024/04/12 13:37:14;;;;;;;;;;;25.30;1.00;;;;;;5524319;25;19928;-69
2024/04/12 13:39:39;;;;;;;;;;;26.20;1.00;;;;;;5524887;26;19972;-69
2024/04/12 13:42:10;;;;;;;;;;;26.40;1.00;;;;;;5524721;25;19928;-69
2024/04/12 13:52:49;;;;;;;;;;;25.40;1.00;;;;;;5524238;26;19995;-69
2024/04/12 13:55:14;;;;;;;;;;;25.10;1.00;;;;;;5534422;25;20376;-70
2024/04/12 13:57:43;;;;;;;;;;;24.80;1.00;;;;;;5524524;25;20633;-69
2024/04/12 14:00:10;;;;;;;;;;;24.10;1.00;;;;;;5523812;26;19927;-69
2024/04/12 14:02:36;;;;;;;;;;;23.90;1.00;;;;;;5524044;25;19928;-69
2024/04/12 14:05:02;;;;;;;;;;;23.40;1.00;;;;;;5524011;25;20375;-69
2024/04/12 14:07:33;;;;;;;;;;;23.10;1.00;;;;;;5524239;25;19938;-69
2024/04/12 14:10:04;;;;;;;;;;;23.00;1.00;;;;;;5524051;25;20395;-69
2024/04/12 14:12:30;;;;;;;;;;;23.00;1.00;;;;;;5524000;25;19999;-69
2024/04/12 14:14:55;;;;;;;;;;;23.10;1.00;;;;;;5524039;25;19935;-69
2024/04/12 14:17:22;;;;;;;;;;;23.00;1.00;;;;;;5526066;25;19928;-69
2024/04/12 14:19:48;;;;;;;;;;;22.80;1.00;;;;;;5527055;26;19939;-69
2024/04/12 14:22:13;;;;;;;;;;;22.70;1.00;;;;;;5527650;25;19935;-69
2024/04/12 14:25:01;;;;;;;;;;;22.60;1.00;;;;;;5527803;25;19932;-69
2024/04/12 14:27:27;;;;;;;;;;;22.40;1.00;;;;;;5527706;26;19928;-69
2024/04/12 14:29:53;;;;;;;;;;;22.40;1.00;;;;;;5527062;26;19939;-69
2024/04/12 14:32:18;;;;;;;;;;;22.00;1.00;;;;;;5527752;26;19999;-69
2024/04/12 14:34:49;;;;;;;;;;;22.10;1.00;;;;;;5527318;25;19927;-69
2024/04/12 14:37:14;;;;;;;;;;;22.60;1.00;;;;;;5527486;25;20334;-69
2024/04/12 14:39:42;;;;;;;;;;;23.60;1.00;;;;;;5527053;25;19937;-69
2024/04/12 14:42:08;;;;;;;;;;;23.70;1.00;;;;;;5527385;25;19927;-69
2024/04/12 14:44:37;;;;;;;;;;;23.50;1.00;;;;;;5527213;26;19933;-69
2024/04/12 14:47:03;;;;;;;;;;;23.30;1.00;;;;;;5527481;26;19928;-69
2024/04/12 14:49:29;;;;;;;;;;;22.90;1.00;;;;;;5530017;25;19935;-69
2024/04/12 14:51:55;;;;;;;;;;;22.60;1.00;;;;;;5539411;25;19927;-69
2024/04/12 14:54:21;;;;;;;;;;;22.50;1.00;;;;;;5527024;25;20395;-69
2024/04/12 14:56:47;;;;;;;;;;;22.40;1.00;;;;;;5527285;25;19927;-69
2024/04/12 14:59:13;;;;;;;;;;;22.40;1.00;;;;;;5526626;26;19934;-69
2024/04/12 15:01:39;;;;;;;;;;;22.40;1.00;;;;;;5527095;26;19934;-69
2024/04/12 15:53:15;;;;;;;;;;;21.40;1.00;;;;;;5563594;25;20399;-69
2024/04/12 15:55:32;;;;;;;;;;;21.40;1.00;;;;;;5563593;25;19927;-69
2024/04/12 16:11:38;;;;;;;;;;;22.20;1.00;;;;;;5563792;25;20335;-68
2024/04/12 16:14:04;;;;;;;;;;;22.60;1.00;;;;;;5563679;25;19935;-69
2024/04/12 16:16:29;;;;;;;;;;;22.50;1.00;;;;;;5564031;25;19927;-68
2024/04/12 16:18:55;;;;;;;;;;;22.50;1.00;;;;;;5563942;25;19927;-68
2024/04/12 16:21:21;;;;;;;;;;;22.40;1.00;;;;;;5563385;25;19934;-69
2024/04/12 16:23:47;;;;;;;;;;;22.30;1.00;;;;;;5563908;25;19941;-68
2024/04/12 16:26:12;;;;;;;;;;;22.20;1.00;;;;;;5563625;25;19927;-68
2024/04/12 16:28:38;;;;;;;;;;;22.30;1.00;;;;;;5563549;25;19934;-68
2024/04/12 16:31:03;;;;;;;;;;;22.40;1.00;;;;;;5563102;25;19927;-70
2024/04/12 16:33:28;;;;;;;;;;;22.20;1.00;;;;;;5563364;25;20340;-70
2024/04/12 16:35:54;;;;;;;;;;;22.30;1.00;;;;;;5562831;25;19927;-69
2024/04/12 16:38:20;;;;;;;;;;;22.50;1.00;;;;;;5563995;25;19934;-67
2024/04/12 16:40:48;;;;;;;;;;;22.40;1.00;;;;;;5563406;25;19941;-69
2024/04/12 16:43:13;;;;;;;;;;;22.30;1.00;;;;;;5563176;25;20263;-68
2024/04/12 16:45:39;;;;;;;;;;;22.10;1.00;;;;;;5563296;25;19934;-68
2024/04/12 16:48:04;;;;;;;;;;;21.90;1.00;;;;;;5563344;25;20275;-68
2024/04/12 16:50:30;;;;;;;;;;;21.70;1.00;;;;;;5552944;25;20403;-69
2024/04/12 16:52:55;;;;;;;;;;;21.60;1.00;;;;;;5544716;25;19977;-69
2024/04/12 16:55:24;;;;;;;;;;;21.50;1.00;;;;;;5562513;25;19971;-69
2024/04/12 16:57:50;;;;;;;;;;;21.40;1.00;;;;;;5562274;25;19927;-69
2024/04/12 17:00:15;;;;;;;;;;;21.20;1.00;;;;;;5562475;25;20359;-69